createdAt,value
2022-11-30T00:01:20.251Z,15.15
2022-11-30T00:03:47.236Z,15.03
2022-11-30T00:06:17.156Z,15.07
2022-11-30T00:08:44.350Z,15.09
2022-11-30T00:11:17.987Z,15.03
2022-11-30T00:13:44.974Z,15.08
2022-11-30T00:16:11.687Z,15.00
2022-11-30T00:18:39.326Z,14.95
2022-11-30T00:21:11.465Z,15.09
2022-11-30T00:23:40.730Z,15.08
2022-11-30T00:26:09.130Z,15.00
2022-11-30T00:28:37.773Z,14.92
2022-11-30T00:31:07.675Z,14.95
2022-11-30T00:33:36.865Z,14.97
2022-11-30T00:36:06.974Z,14.91
2022-11-30T00:38:35.919Z,14.89
2022-11-30T00:41:03.051Z,14.86
2022-11-30T00:43:30.469Z,14.84
2022-11-30T00:45:57.707Z,14.84
2022-11-30T00:48:24.737Z,14.91
2022-11-30T00:50:51.940Z,14.99
2022-11-30T00:53:19.486Z,14.96
2022-11-30T00:55:47.056Z,15.01
2022-11-30T00:58:14.778Z,14.93
2022-11-30T01:00:41.958Z,15.01
2022-11-30T01:03:09.153Z,14.96
2022-11-30T01:05:36.675Z,14.92
2022-11-30T01:08:05.712Z,14.88
2022-11-30T01:10:34.161Z,14.84
2022-11-30T01:13:01.269Z,14.95
2022-11-30T01:15:28.291Z,14.83
2022-11-30T01:17:55.361Z,14.94
2022-11-30T01:20:22.414Z,14.97
2022-11-30T01:22:49.192Z,14.88
2022-11-30T01:25:15.995Z,14.86
2022-11-30T01:27:42.834Z,14.83
2022-11-30T01:30:10.108Z,14.99
2022-11-30T01:32:38.071Z,14.89
2022-11-30T01:35:05.058Z,14.79
2022-11-30T01:37:31.727Z,14.94
2022-11-30T01:39:58.740Z,14.86
2022-11-30T01:42:25.526Z,14.82
2022-11-30T01:45:02.447Z,14.82
2022-11-30T01:47:37.701Z,14.77
2022-11-30T01:50:11.116Z,14.79
2022-11-30T01:52:41.405Z,14.79
2022-11-30T01:55:08.644Z,14.75
2022-11-30T01:57:39.443Z,14.75
2022-11-30T02:00:13.002Z,14.79
2022-11-30T02:03:07.757Z,14.70
2022-11-30T02:05:39.919Z,14.71
2022-11-30T02:08:08.957Z,14.68
2022-11-30T02:10:38.836Z,14.70
2022-11-30T02:13:37.678Z,14.67
2022-11-30T02:16:19.311Z,14.70
2022-11-30T02:19:06.023Z,14.58
2022-11-30T02:21:47.312Z,14.67
2022-11-30T02:24:34.306Z,14.56
2022-11-30T02:27:38.725Z,14.72
2022-11-30T02:30:13.798Z,14.69
2022-11-30T02:32:50.602Z,14.64
2022-11-30T02:35:21.968Z,14.71
2022-11-30T02:37:51.268Z,14.71
2022-11-30T02:40:20.962Z,14.63
2022-11-30T02:42:50.450Z,14.68
2022-11-30T02:45:18.666Z,14.64
2022-11-30T02:47:59.500Z,14.55
2022-11-30T02:50:34.026Z,14.61
2022-11-30T02:53:01.600Z,14.56
2022-11-30T02:55:29.176Z,14.69
2022-11-30T02:57:55.940Z,14.73
2022-11-30T03:00:22.752Z,14.56
2022-11-30T03:02:49.932Z,14.59
2022-11-30T03:05:16.917Z,14.58
2022-11-30T03:07:43.905Z,14.53
2022-11-30T03:10:11.207Z,14.66
2022-11-30T03:12:38.378Z,14.64
2022-11-30T03:15:06.317Z,14.53
2022-11-30T03:17:33.389Z,14.55
2022-11-30T03:20:00.596Z,14.49
2022-11-30T03:22:27.414Z,14.52
2022-11-30T03:24:54.320Z,14.46
2022-11-30T03:27:21.154Z,14.42
2022-11-30T03:29:47.989Z,14.52
2022-11-30T03:32:15.015Z,14.55
2022-11-30T03:34:41.813Z,14.53
2022-11-30T03:37:08.785Z,14.50
2022-11-30T03:39:35.907Z,14.52
2022-11-30T03:42:03.634Z,14.51
2022-11-30T03:44:30.331Z,14.44
2022-11-30T03:46:57.057Z,14.51
2022-11-30T03:49:24.020Z,14.53
2022-11-30T03:51:50.942Z,14.58
2022-11-30T03:54:17.837Z,14.38
2022-11-30T03:56:44.886Z,14.41
2022-11-30T03:59:11.909Z,14.47
2022-11-30T04:01:41.171Z,14.46
2022-11-30T04:04:08.086Z,14.45
2022-11-30T04:06:34.863Z,14.47
2022-11-30T04:09:01.770Z,14.35
2022-11-30T04:11:28.483Z,14.35
2022-11-30T04:13:55.176Z,14.43
2022-11-30T04:16:21.996Z,14.35
2022-11-30T04:18:49.051Z,14.29
2022-11-30T04:21:16.190Z,14.41
2022-11-30T04:23:42.888Z,14.34
2022-11-30T04:26:12.553Z,14.34
2022-11-30T04:28:39.246Z,14.31
2022-11-30T04:31:06.322Z,14.37
2022-11-30T04:33:33.317Z,14.38
2022-11-30T04:36:02.759Z,14.40
2022-11-30T04:38:30.234Z,14.41
2022-11-30T04:40:57.111Z,14.35
2022-11-30T04:43:24.886Z,14.33
2022-11-30T04:45:51.975Z,14.24
2022-11-30T04:48:19.283Z,14.28
2022-11-30T04:50:46.328Z,14.36
2022-11-30T04:53:13.138Z,14.31
2022-11-30T04:55:39.952Z,14.32
2022-11-30T04:58:07.151Z,14.28
2022-11-30T05:00:34.583Z,14.26
2022-11-30T05:03:02.039Z,14.31
2022-11-30T05:05:28.772Z,14.22
2022-11-30T05:07:58.204Z,14.22
2022-11-30T05:10:25.186Z,14.26
2022-11-30T05:12:52.489Z,14.31
2022-11-30T05:15:19.829Z,14.23
2022-11-30T05:17:46.873Z,14.23
2022-11-30T05:20:14.117Z,14.22
2022-11-30T05:22:41.027Z,14.32
2022-11-30T05:25:09.341Z,14.32
2022-11-30T05:27:37.020Z,14.21
2022-11-30T05:30:05.183Z,14.28
2022-11-30T05:32:32.476Z,14.21
2022-11-30T05:34:59.543Z,14.19
2022-11-30T05:37:26.534Z,14.23
2022-11-30T05:39:53.345Z,14.14
2022-11-30T05:42:20.035Z,14.18
2022-11-30T05:44:48.201Z,14.12
2022-11-30T05:47:15.873Z,14.13
2022-11-30T05:49:42.780Z,14.12
2022-11-30T05:52:09.716Z,14.14
2022-11-30T05:54:36.493Z,14.19
2022-11-30T05:57:03.552Z,14.13
2022-11-30T05:59:30.211Z,14.11
2022-11-30T06:01:57.280Z,14.18
2022-11-30T06:04:24.114Z,13.94
2022-11-30T06:06:52.331Z,13.88
2022-11-30T06:09:19.072Z,14.03
2022-11-30T06:11:45.863Z,14.12
2022-11-30T06:14:12.622Z,14.20
2022-11-30T06:16:40.124Z,14.12
2022-11-30T06:19:07.236Z,14.19
2022-11-30T06:21:34.667Z,14.00
2022-11-30T06:24:01.385Z,14.02
2022-11-30T06:26:28.381Z,14.00
2022-11-30T06:28:55.107Z,14.03
2022-11-30T06:31:21.837Z,14.06
2022-11-30T06:33:48.734Z,14.05
2022-11-30T06:36:21.850Z,13.99
2022-11-30T06:38:49.076Z,13.98
2022-11-30T06:41:16.017Z,14.01
2022-11-30T06:43:42.913Z,14.03
2022-11-30T06:46:13.043Z,13.98
2022-11-30T06:48:39.869Z,14.03
2022-11-30T06:51:08.379Z,13.96
2022-11-30T06:53:36.315Z,13.97
2022-11-30T06:56:10.353Z,14.03
2022-11-30T06:58:41.624Z,13.93
2022-11-30T07:01:10.924Z,13.97
2022-11-30T07:03:38.530Z,13.89
2022-11-30T07:06:13.149Z,13.92
2022-11-30T07:08:40.904Z,13.92
2022-11-30T07:11:09.447Z,13.84
2022-11-30T07:13:36.938Z,13.91
2022-11-30T07:16:05.595Z,13.85
2022-11-30T07:18:33.062Z,13.84
2022-11-30T07:21:04.748Z,13.83
2022-11-30T07:23:55.813Z,13.91
2022-11-30T07:26:24.513Z,13.84
2022-11-30T07:28:58.369Z,13.90
2022-11-30T07:31:30.544Z,13.87
2022-11-30T07:33:59.212Z,13.84
2022-11-30T07:36:27.285Z,13.86
2022-11-30T07:38:54.297Z,13.83
2022-11-30T07:41:21.133Z,13.79
2022-11-30T07:43:48.018Z,13.83
2022-11-30T07:46:16.077Z,13.84
2022-11-30T07:48:44.324Z,13.99
2022-11-30T07:51:13.155Z,14.05
2022-11-30T07:53:40.342Z,14.08
2022-11-30T07:56:17.558Z,14.12
2022-11-30T07:58:44.505Z,14.11
2022-11-30T08:01:19.869Z,14.04
2022-11-30T08:03:46.989Z,13.97
2022-11-30T08:06:16.596Z,13.95
2022-11-30T08:08:44.781Z,13.98
2022-11-30T08:11:13.990Z,13.97
2022-11-30T08:13:41.379Z,14.05
2022-11-30T08:16:12.514Z,14.06
2022-11-30T08:18:40.054Z,14.11
2022-11-30T08:21:09.352Z,14.04
2022-11-30T08:23:39.497Z,14.02
2022-11-30T08:26:09.143Z,14.06
2022-11-30T08:28:36.299Z,14.06
2022-11-30T08:31:06.251Z,14.03
2022-11-30T08:33:34.476Z,13.98
2022-11-30T08:36:12.819Z,13.99
2022-11-30T08:38:41.288Z,14.00
2022-11-30T08:41:10.648Z,14.07
2022-11-30T08:43:37.772Z,14.14
2022-11-30T08:46:27.611Z,14.11
2022-11-30T08:49:12.532Z,14.11
2022-11-30T08:52:14.647Z,14.09
2022-11-30T08:54:28.028Z,14.08
2022-11-30T08:56:54.795Z,14.09
2022-11-30T08:59:21.696Z,14.14
2022-11-30T09:01:48.506Z,14.20
2022-11-30T09:04:15.174Z,14.16
2022-11-30T09:06:42.013Z,14.18
2022-11-30T09:09:09.018Z,14.27
2022-11-30T09:11:35.803Z,14.24
2022-11-30T09:14:09.031Z,14.22
2022-11-30T09:16:36.100Z,14.46
2022-11-30T09:19:03.518Z,14.54
2022-11-30T09:21:30.571Z,14.65
2022-11-30T09:23:57.332Z,14.67
2022-11-30T09:26:25.695Z,14.75
2022-11-30T09:28:54.171Z,14.72
2022-11-30T09:31:23.697Z,14.78
2022-11-30T09:33:51.012Z,14.67
2022-11-30T09:36:20.537Z,14.63
2022-11-30T09:38:47.709Z,14.76
2022-11-30T09:41:35.885Z,14.87
2022-11-30T09:44:29.835Z,14.92
2022-11-30T09:47:05.698Z,14.98
2022-11-30T09:49:36.772Z,15.01
2022-11-30T09:52:09.903Z,15.01
2022-11-30T09:54:41.048Z,15.01
2022-11-30T09:57:25.898Z,14.92
2022-11-30T10:00:12.515Z,14.78
2022-11-30T10:02:42.900Z,14.79
2022-11-30T10:05:14.350Z,14.91
2022-11-30T10:07:50.215Z,14.78
2022-11-30T10:10:32.687Z,14.82
2022-11-30T10:13:23.397Z,14.79
2022-11-30T10:15:56.234Z,14.77
2022-11-30T10:18:31.392Z,14.79
2022-11-30T10:21:10.819Z,14.80
2022-11-30T10:23:55.697Z,14.75
2022-11-30T10:26:35.578Z,14.73
2022-11-30T10:29:14.556Z,14.71
2022-11-30T10:31:43.268Z,14.74
2022-11-30T10:34:35.048Z,14.84
2022-11-30T10:37:12.692Z,14.76
2022-11-30T10:39:48.848Z,14.73
2022-11-30T10:42:26.363Z,14.78
2022-11-30T10:45:03.348Z,14.78
2022-11-30T10:47:37.247Z,14.80
2022-11-30T10:50:26.299Z,14.80
2022-11-30T10:52:56.180Z,14.78
2022-11-30T10:55:26.299Z,14.79
2022-11-30T10:58:05.202Z,14.81
2022-11-30T11:00:32.882Z,14.82
2022-11-30T11:02:59.595Z,14.83
2022-11-30T11:05:28.869Z,14.81
2022-11-30T11:08:02.724Z,14.86
2022-11-30T11:10:49.578Z,14.80
2022-11-30T11:13:42.220Z,14.84
2022-11-30T11:16:12.097Z,14.81
2022-11-30T11:18:56.737Z,14.78
2022-11-30T11:21:24.915Z,14.79
2022-11-30T11:23:57.308Z,14.79
2022-11-30T11:26:27.237Z,14.90
2022-11-30T11:28:56.447Z,14.94
2022-11-30T11:31:42.844Z,14.88
2022-11-30T11:34:31.690Z,14.87
2022-11-30T11:37:12.681Z,14.86
2022-11-30T11:39:39.691Z,14.99
2022-11-30T11:42:17.688Z,15.20
2022-11-30T11:44:52.288Z,15.28
2022-11-30T11:47:28.053Z,15.32
2022-11-30T11:50:13.111Z,15.37
2022-11-30T11:52:39.962Z,15.46
2022-11-30T11:55:14.895Z,15.44
2022-11-30T11:57:57.318Z,15.50
2022-11-30T12:00:25.477Z,15.59
2022-11-30T12:03:01.374Z,15.61
2022-11-30T12:05:34.626Z,15.43
2022-11-30T12:08:01.756Z,15.51
2022-11-30T12:10:52.093Z,15.61
2022-11-30T12:13:22.736Z,15.68
2022-11-30T12:16:15.810Z,15.72
2022-11-30T12:19:03.151Z,15.74
2022-11-30T12:22:06.745Z,15.57
2022-11-30T12:24:48.892Z,15.57
2022-11-30T12:27:29.726Z,15.52
2022-11-30T12:29:56.771Z,15.56
2022-11-30T12:32:48.669Z,15.50
2022-11-30T12:35:15.515Z,15.50
2022-11-30T12:38:23.771Z,15.56
2022-11-30T12:41:29.653Z,15.41
2022-11-30T12:56:11.494Z,15.86
2022-11-30T12:58:58.364Z,15.84
2022-11-30T13:01:39.316Z,15.87
2022-11-30T13:04:38.200Z,15.73
2022-11-30T13:07:29.692Z,15.71
2022-11-30T13:10:06.892Z,15.76
2022-11-30T13:12:39.144Z,15.60
2022-11-30T13:15:15.801Z,15.74
2022-11-30T13:17:43.906Z,15.83
2022-11-30T13:20:19.812Z,15.92
2022-11-30T13:23:12.749Z,15.95
2022-11-30T13:26:11.763Z,15.99
2022-11-30T13:28:54.974Z,15.98
2022-11-30T13:31:30.326Z,16.10
2022-11-30T13:33:59.709Z,16.04
2022-11-30T13:36:43.587Z,16.08
2022-11-30T13:39:23.734Z,16.10
2022-11-30T13:42:02.319Z,16.14
2022-11-30T13:44:35.006Z,16.19
2022-11-30T13:47:05.148Z,16.13
2022-11-30T13:49:37.404Z,16.00
2022-11-30T13:54:57.466Z,15.91
2022-11-30T13:57:30.255Z,15.92
2022-11-30T14:00:01.436Z,15.87
2022-11-30T14:02:36.487Z,15.87
2022-11-30T14:05:23.327Z,15.96
2022-11-30T14:07:50.666Z,15.86
2022-11-30T14:10:27.951Z,15.82
2022-11-30T14:13:05.839Z,15.79
2022-11-30T14:15:38.530Z,15.83
2022-11-30T14:18:07.992Z,15.80
2022-11-30T14:20:58.328Z,15.77
2022-11-30T14:23:39.789Z,15.76
2022-11-30T14:26:13.568Z,15.74
2022-11-30T14:28:47.158Z,15.69
2022-11-30T14:31:21.471Z,15.72
2022-11-30T14:33:54.457Z,15.81
2022-11-30T14:36:26.756Z,16.02
2022-11-30T14:38:53.950Z,16.07
2022-11-30T14:41:25.712Z,16.20
2022-11-30T14:44:03.677Z,16.21
2022-11-30T14:46:33.813Z,16.16
2022-11-30T14:49:14.768Z,16.21
2022-11-30T14:51:54.030Z,16.20
2022-11-30T14:54:38.943Z,16.29
2022-11-30T14:57:16.010Z,16.16
2022-11-30T14:59:51.861Z,16.07
2022-11-30T15:02:38.971Z,16.06
2022-11-30T15:05:08.846Z,16.07
2022-11-30T15:07:37.157Z,16.06
2022-11-30T15:10:11.469Z,15.93
2022-11-30T15:12:40.763Z,15.92
2022-11-30T15:15:20.660Z,16.04
2022-11-30T15:18:13.974Z,15.96
2022-11-30T15:21:02.823Z,15.93
2022-11-30T15:23:29.869Z,15.94
2022-11-30T15:26:03.684Z,16.01
2022-11-30T15:28:34.394Z,16.10
2022-11-30T15:31:05.642Z,16.22
2022-11-30T15:33:42.035Z,16.28
2022-11-30T15:36:31.805Z,16.34
2022-11-30T15:39:03.213Z,16.33
2022-11-30T15:41:31.890Z,16.36
2022-11-30T15:44:17.145Z,16.41
2022-11-30T15:46:59.335Z,16.36
2022-11-30T15:49:48.263Z,16.41
2022-11-30T15:52:18.176Z,16.38
2022-11-30T15:54:52.768Z,16.29
2022-11-30T15:57:21.214Z,16.23
2022-11-30T16:00:21.034Z,16.12
2022-11-30T16:02:48.055Z,16.13
2022-11-30T16:05:18.124Z,16.09
2022-11-30T16:07:57.245Z,16.03
2022-11-30T16:10:25.873Z,16.09
2022-11-30T16:12:54.581Z,16.03
2022-11-30T16:15:31.813Z,16.00
2022-11-30T16:18:17.438Z,15.97
2022-11-30T16:20:46.892Z,15.98
2022-11-30T16:23:15.335Z,15.99
2022-11-30T16:25:43.647Z,15.96
2022-11-30T16:28:12.349Z,15.99
2022-11-30T16:30:40.379Z,16.00
2022-11-30T16:33:16.381Z,15.89
2022-11-30T16:35:55.230Z,15.89
2022-11-30T16:38:23.164Z,15.85
2022-11-30T16:40:54.291Z,15.93
2022-11-30T16:43:25.805Z,15.87
2022-11-30T16:45:52.617Z,15.87
2022-11-30T16:48:20.185Z,15.84
2022-11-30T16:50:47.238Z,15.79
2022-11-30T16:53:17.622Z,15.72
2022-11-30T16:55:44.438Z,15.86
2022-11-30T16:58:11.147Z,16.05
2022-11-30T17:00:39.867Z,16.08
2022-11-30T17:03:21.857Z,16.16
2022-11-30T17:05:48.574Z,16.22
2022-11-30T17:08:15.779Z,16.25
2022-11-30T17:10:42.586Z,16.30
2022-11-30T17:13:18.328Z,16.17
2022-11-30T17:15:45.128Z,16.08
2022-11-30T17:18:11.973Z,16.05
2022-11-30T17:20:39.269Z,16.10
2022-11-30T17:23:06.399Z,16.11
2022-11-30T17:25:33.320Z,16.15
2022-11-30T17:28:00.196Z,16.23
2022-11-30T17:30:27.879Z,16.17
2022-11-30T17:32:54.719Z,16.28
2022-11-30T17:35:21.526Z,16.31
2022-11-30T17:37:48.369Z,16.17
2022-11-30T17:40:18.004Z,16.25
2022-11-30T17:42:44.785Z,16.20
2022-11-30T17:45:11.692Z,16.10
2022-11-30T17:47:38.481Z,16.06
2022-11-30T17:50:07.281Z,16.08
2022-11-30T17:52:33.971Z,16.17
2022-11-30T17:55:00.647Z,16.33
2022-11-30T17:57:27.349Z,16.38
2022-11-30T17:59:54.240Z,16.35
2022-11-30T18:02:21.020Z,16.45
2022-11-30T18:04:47.936Z,16.37
2022-11-30T18:07:15.383Z,16.35
2022-11-30T18:09:43.048Z,16.37
2022-11-30T18:12:10.767Z,16.46
2022-11-30T18:14:37.647Z,16.42
2022-11-30T18:17:04.532Z,16.40
2022-11-30T18:19:31.206Z,16.44
2022-11-30T18:21:57.858Z,16.37
2022-11-30T18:24:25.675Z,16.22
2022-11-30T18:26:53.052Z,16.12
2022-11-30T18:29:20.187Z,16.10
2022-11-30T18:31:48.498Z,16.20
2022-11-30T18:34:15.593Z,16.25
2022-11-30T18:36:42.751Z,16.06
2022-11-30T18:39:09.490Z,16.08
2022-11-30T18:41:36.425Z,16.07
2022-11-30T18:44:03.054Z,16.06
2022-11-30T18:46:29.995Z,16.01
2022-11-30T18:48:57.085Z,16.04
2022-11-30T18:51:26.653Z,15.98
2022-11-30T18:54:01.644Z,16.03
2022-11-30T18:56:31.712Z,15.99
2022-11-30T18:59:03.478Z,16.02
2022-11-30T19:01:31.440Z,15.96
2022-11-30T19:04:00.426Z,15.87
2022-11-30T19:06:29.848Z,15.94
2022-11-30T19:08:57.227Z,15.94
2022-11-30T19:11:24.123Z,15.95
2022-11-30T19:13:58.537Z,15.95
2022-11-30T19:16:26.927Z,15.89
2022-11-30T19:18:54.724Z,15.89
2022-11-30T19:21:22.949Z,15.89
2022-11-30T19:23:50.185Z,15.86
2022-11-30T19:26:17.334Z,15.83
2022-11-30T19:28:45.245Z,15.85
2022-11-30T19:31:19.558Z,15.79
2022-11-30T19:33:49.173Z,15.85
2022-11-30T19:36:22.540Z,15.81
2022-11-30T19:38:51.379Z,15.78
2022-11-30T19:41:19.607Z,15.75
2022-11-30T19:43:52.986Z,15.74
2022-11-30T19:46:21.994Z,15.74
2022-11-30T19:48:48.653Z,15.67
2022-11-30T19:51:18.534Z,15.65
2022-11-30T19:53:46.002Z,15.60
2022-11-30T19:56:17.467Z,15.61
2022-11-30T19:58:46.031Z,15.60
2022-11-30T20:01:19.412Z,15.59
2022-11-30T20:03:46.530Z,15.59
2022-11-30T20:06:13.492Z,15.59
2022-11-30T20:08:41.119Z,15.57
2022-11-30T20:11:09.181Z,15.55
2022-11-30T20:13:36.059Z,15.52
2022-11-30T20:16:13.488Z,15.53
2022-11-30T20:18:45.772Z,15.49
2022-11-30T20:21:19.016Z,15.47
2022-11-30T20:23:47.337Z,15.47
2022-11-30T20:26:26.077Z,15.46
2022-11-30T20:28:53.605Z,15.48
2022-11-30T20:31:22.238Z,15.46
2022-11-30T20:33:49.040Z,15.49
2022-11-30T20:36:20.098Z,15.49
2022-11-30T20:38:47.328Z,15.42
2022-11-30T20:41:16.740Z,15.43
2022-11-30T20:43:43.727Z,15.40
2022-11-30T20:46:23.411Z,15.40
2022-11-30T20:48:51.024Z,15.41
2022-11-30T20:51:36.592Z,15.39
2022-11-30T20:54:08.288Z,15.41
2022-11-30T20:56:37.353Z,15.45
2022-11-30T20:59:06.564Z,15.48
2022-11-30T21:01:33.703Z,15.45
2022-11-30T21:04:01.134Z,15.41
2022-11-30T21:06:29.981Z,15.53
2022-11-30T21:08:57.652Z,15.72
2022-11-30T21:11:25.014Z,15.84
2022-11-30T21:13:52.135Z,15.92
2022-11-30T21:16:27.278Z,15.96
2022-11-30T21:18:55.292Z,15.99
2022-11-30T21:21:24.499Z,15.88
2022-11-30T21:23:51.664Z,15.95
2022-11-30T21:26:18.206Z,16.02
2022-11-30T21:28:46.384Z,16.00
2022-11-30T21:31:13.478Z,15.95
2022-11-30T21:33:40.451Z,16.01
2022-11-30T21:36:08.961Z,16.11
2022-11-30T21:38:35.862Z,16.12
2022-11-30T21:41:03.315Z,16.11
2022-11-30T21:43:33.283Z,16.10
2022-11-30T21:46:04.679Z,16.16
2022-11-30T21:48:33.962Z,16.14
2022-11-30T21:51:07.007Z,16.13
2022-11-30T21:53:37.888Z,16.13
2022-11-30T21:56:06.474Z,16.16
2022-11-30T21:58:33.766Z,16.08
2022-11-30T22:01:02.548Z,16.09
2022-11-30T22:03:29.598Z,16.06
2022-11-30T22:06:05.126Z,16.14
2022-11-30T22:08:32.721Z,16.11
2022-11-30T22:11:01.821Z,16.08
2022-11-30T22:13:29.858Z,16.02
2022-11-30T22:15:58.671Z,16.04
2022-11-30T22:18:25.564Z,16.05
2022-11-30T22:20:52.254Z,16.03
2022-11-30T22:23:19.085Z,16.06
2022-11-30T22:25:45.776Z,16.07
2022-11-30T22:28:12.564Z,15.94
2022-11-30T22:30:39.182Z,15.84
2022-11-30T22:33:06.080Z,15.73
2022-11-30T22:35:33.180Z,15.67
2022-11-30T22:37:59.850Z,15.64
2022-11-30T22:40:26.533Z,15.65
2022-11-30T22:42:53.222Z,15.64
2022-11-30T22:45:20.016Z,15.61
2022-11-30T22:47:46.793Z,15.59
2022-11-30T22:50:13.344Z,15.53
2022-11-30T22:53:02.055Z,15.53
2022-11-30T22:55:26.896Z,15.49
2022-11-30T22:57:53.640Z,15.48
2022-11-30T23:00:20.418Z,15.49
2022-11-30T23:02:49.106Z,15.46
2022-11-30T23:05:15.833Z,15.40
2022-11-30T23:07:42.532Z,15.39
2022-11-30T23:10:27.809Z,15.37
2022-11-30T23:13:01.449Z,15.34
2022-11-30T23:15:28.010Z,15.30
2022-11-30T23:17:54.606Z,15.29
2022-11-30T23:20:22.526Z,15.26
2022-11-30T23:22:49.113Z,15.21
2022-11-30T23:25:16.833Z,15.19
2022-11-30T23:27:43.724Z,15.16
2022-11-30T23:30:10.608Z,15.15
2022-11-30T23:32:37.242Z,15.13
2022-11-30T23:35:03.996Z,15.09
2022-11-30T23:37:31.109Z,15.08
2022-11-30T23:39:57.729Z,15.05
2022-11-30T23:42:24.418Z,15.04
2022-11-30T23:44:57.435Z,15.03
2022-11-30T23:47:24.032Z,15.03
2022-11-30T23:49:50.938Z,15.00
2022-11-30T23:52:17.666Z,15.00
2022-11-30T23:54:44.223Z,14.96
2022-11-30T23:57:10.847Z,14.95
2022-11-30T23:59:37.483Z,14.95
